KJST/JST METAR and TAF weather

Enter ICAO airport designator
Station Type Date Time Source
KJST METAR 2019/11/13 01:54 UTC NOAA

KJST 130154Z AUTO 31009KT 10SM CLR M09/M13 A3015 RMK AO2 SLP244 T10891133


Station Type Date Time Source
KJST Decoded METAR 2019/11/13 01:54 UTC NOAA

JOHNSTOWN-CAMBRIA CO AIRPORT , PA, United States (KJST) 40-19N 078-50W 694M
Nov 12, 2019 - 08:54 PM EST / 2019.11.13 0154 UTC
Wind: from the NW (310 degrees) at 10 MPH (9 KT):0
Visibility: 10 mile(s):0
Sky conditions: clear
Temperature: 16.0 F (-8.9 C)
Windchill: 3 F (-16 C):1
Dew Point: 8.1 F (-13.3 C)
Relative Humidity: 70%
Pressure (altimeter): 30.15 in. Hg (1020 hPa)
ob: KJST 130154Z AUTO 31009KT 10SM CLR M09/M13 A3015 RMK AO2 SLP244 T10891133
cycle: 2

Station Type Date Time Source
KJST TAF 2019/11/13 01:22 UTC NOAA

TAF
AMD KJST 130120Z 1301/1324 31010KT P6SM -SHSN FEW070
TEMPO 1302/1304 3SM -SHSN OVC025
FM130400 31012G22KT 5SM -SHSN BKN035
TEMPO 1304/1308 2SM -SHSN OVC028
FM131100 28006KT P6SM -SHSN BKN015
FM131400 28008KT P6SM -SHSN BKN035

Example: see airport list